Metar GG30 METAR message from awiacja.imgw.pl Metar G30 EPMO METAR EPMO 240430Z 09006KT 0300 R08/0350N FG OVC000 10/10 Q1017 =